createdAt,value
2017-10-10T00:02:02.769Z,10.73
2017-10-10T00:04:30.385Z,11.25
2017-10-10T00:06:57.999Z,10.60
2017-10-10T00:09:25.613Z,10.32
2017-10-10T00:11:53.177Z,9.93
2017-10-10T00:14:21.615Z,10.40
2017-10-10T00:16:49.223Z,9.48
2017-10-10T00:19:17.603Z,9.45
2017-10-10T00:21:45.989Z,9.10
2017-10-10T00:24:14.385Z,10.10
2017-10-10T00:26:42.035Z,8.80
2017-10-10T00:29:09.650Z,11.30
2017-10-10T00:31:37.338Z,10.30
2017-10-10T00:34:04.969Z,11.00
2017-10-10T00:36:32.585Z,12.05
2017-10-10T00:39:00.199Z,13.75
2017-10-10T00:41:27.827Z,14.27
2017-10-10T00:43:55.437Z,13.13
2017-10-10T00:46:23.049Z,13.07
2017-10-10T00:48:50.666Z,13.27
2017-10-10T00:51:18.274Z,13.45
2017-10-10T00:53:45.902Z,12.50
2017-10-10T00:56:13.541Z,12.90
2017-10-10T00:58:41.178Z,12.95
2017-10-10T01:01:08.825Z,13.13
2017-10-10T01:03:36.476Z,13.32
2017-10-10T01:06:04.087Z,13.82
2017-10-10T01:08:31.714Z,13.02
2017-10-10T01:10:59.378Z,12.10
2017-10-10T01:13:27.023Z,12.77
2017-10-10T01:15:54.654Z,11.15
2017-10-10T01:18:22.996Z,13.02
2017-10-10T01:20:50.643Z,12.15
2017-10-10T01:23:18.271Z,11.27
2017-10-10T01:25:45.898Z,12.10
2017-10-10T01:28:13.494Z,12.30
2017-10-10T01:30:41.139Z,13.15
2017-10-10T01:33:08.774Z,13.32
2017-10-10T01:35:36.374Z,12.75
2017-10-10T01:38:04.760Z,12.70
2017-10-10T01:40:32.403Z,11.98
2017-10-10T01:43:00.797Z,11.45
2017-10-10T01:45:28.410Z,11.25
2017-10-10T01:47:56.024Z,12.00
2017-10-10T01:50:23.614Z,11.88
2017-10-10T01:52:51.196Z,12.60
2017-10-10T01:55:18.810Z,14.27
2017-10-10T01:57:46.422Z,13.05
2017-10-10T02:00:14.008Z,13.32
2017-10-10T02:02:41.642Z,12.63
2017-10-10T02:05:09.257Z,13.45
2017-10-10T02:07:36.870Z,11.57
2017-10-10T02:10:04.501Z,14.63
2017-10-10T02:12:32.108Z,13.13
2017-10-10T02:14:59.724Z,14.07
2017-10-10T02:17:27.382Z,13.50
2017-10-10T02:19:55.013Z,13.62
2017-10-10T02:22:22.624Z,13.30
2017-10-10T02:24:50.235Z,12.73
2017-10-10T02:27:17.859Z,12.25
2017-10-10T02:29:45.470Z,14.35
2017-10-10T02:32:13.079Z,14.38
2017-10-10T02:34:40.694Z,13.50
2017-10-10T02:37:08.302Z,14.57
2017-10-10T02:39:35.914Z,13.32
2017-10-10T02:42:03.539Z,15.40
2017-10-10T02:44:31.118Z,14.15
2017-10-10T02:46:59.457Z,16.10
2017-10-10T02:49:27.028Z,15.90
2017-10-10T02:51:54.653Z,15.32
2017-10-10T02:54:22.278Z,14.63
2017-10-10T02:56:49.900Z,15.60
2017-10-10T02:59:17.523Z,15.55
2017-10-10T03:01:45.134Z,15.55
2017-10-10T03:04:12.705Z,15.50
2017-10-10T03:06:40.354Z,16.75
2017-10-10T03:09:07.963Z,15.18
2017-10-10T03:11:35.602Z,15.40
2017-10-10T03:14:03.979Z,14.40
2017-10-10T03:16:32.314Z,14.50
2017-10-10T03:18:59.883Z,14.98
2017-10-10T03:21:27.461Z,14.40
2017-10-10T03:23:55.095Z,14.35
2017-10-10T03:26:22.710Z,13.55
2017-10-10T03:28:51.195Z,15.02
2017-10-10T03:31:18.803Z,14.38
2017-10-10T03:33:46.414Z,15.57
2017-10-10T03:36:14.073Z,15.27
2017-10-10T03:38:41.680Z,14.82
2017-10-10T03:41:09.258Z,15.15
2017-10-10T03:43:36.871Z,15.90
2017-10-10T03:46:04.506Z,14.57
2017-10-10T03:48:32.891Z,15.25
2017-10-10T03:51:00.505Z,14.75
2017-10-10T03:53:28.162Z,14.73
2017-10-10T03:55:55.772Z,14.02
2017-10-10T03:58:23.383Z,15.50
2017-10-10T04:00:51.014Z,13.32
2017-10-10T04:03:18.674Z,12.90
2017-10-10T04:05:46.248Z,13.13
2017-10-10T04:08:13.863Z,13.60
2017-10-10T04:10:41.492Z,14.30
2017-10-10T04:13:09.104Z,14.85
2017-10-10T04:15:37.481Z,14.13
2017-10-10T04:18:05.056Z,14.50
2017-10-10T04:20:32.669Z,14.90
2017-10-10T04:23:00.288Z,16.33
2017-10-10T04:25:27.935Z,15.98
2017-10-10T04:27:55.542Z,17.00
2017-10-10T04:30:23.197Z,18.08
2017-10-10T04:32:50.808Z,17.42
2017-10-10T04:35:18.418Z,18.15
2017-10-10T04:37:45.993Z,16.70
2017-10-10T04:40:13.598Z,18.58
2017-10-10T04:42:41.225Z,18.20
2017-10-10T04:45:08.796Z,18.30
2017-10-10T04:47:36.408Z,16.67
2017-10-10T04:50:04.023Z,18.30
2017-10-10T04:52:32.358Z,18.25
2017-10-10T04:54:59.968Z,17.52
2017-10-10T04:57:27.590Z,19.33
2017-10-10T04:59:55.215Z,19.85
2017-10-10T05:02:22.826Z,18.17
2017-10-10T05:04:50.444Z,18.50
2017-10-10T05:07:18.013Z,16.62
2017-10-10T05:09:45.627Z,15.77
2017-10-10T05:12:13.248Z,16.23
2017-10-10T05:14:40.858Z,15.05
2017-10-10T05:17:08.534Z,14.63
2017-10-10T05:19:36.142Z,14.73
2017-10-10T05:22:03.712Z,14.20
2017-10-10T05:24:31.331Z,14.50
2017-10-10T05:26:58.903Z,14.98
2017-10-10T05:29:26.478Z,12.85
2017-10-10T05:31:57.837Z,14.57
2017-10-10T05:34:25.644Z,13.60
2017-10-10T05:36:53.980Z,13.88
2017-10-10T05:39:21.568Z,12.95
2017-10-10T05:41:49.189Z,13.65
2017-10-10T05:44:16.799Z,11.80
2017-10-10T05:46:44.417Z,12.30
2017-10-10T05:49:12.090Z,13.45
2017-10-10T05:51:39.659Z,10.80
2017-10-10T05:54:07.270Z,11.52
2017-10-10T05:56:34.878Z,9.75
2017-10-10T05:59:02.452Z,9.93
2017-10-10T06:01:30.061Z,10.35
2017-10-10T06:03:57.679Z,9.32
2017-10-10T06:06:25.766Z,10.65
2017-10-10T06:08:53.371Z,9.85
2017-10-10T06:11:20.983Z,8.82
2017-10-10T06:13:48.597Z,8.20
2017-10-10T06:16:16.226Z,9.10
2017-10-10T06:18:43.786Z,8.70
2017-10-10T06:21:11.450Z,8.93
2017-10-10T06:23:39.110Z,8.45
2017-10-10T06:26:06.681Z,7.57
2017-10-10T06:28:34.300Z,7.68
2017-10-10T06:31:02.680Z,8.18
2017-10-10T06:33:30.311Z,7.40
2017-10-10T06:35:57.915Z,8.32
2017-10-10T06:38:26.290Z,7.40
2017-10-10T06:40:54.720Z,6.75
2017-10-10T06:43:22.406Z,7.03
2017-10-10T06:45:50.573Z,6.82
2017-10-10T06:48:19.660Z,6.07
2017-10-10T06:50:47.583Z,6.22
2017-10-10T06:53:15.196Z,7.03
2017-10-10T06:55:42.812Z,7.65
2017-10-10T06:58:10.416Z,5.80
2017-10-10T07:00:38.021Z,6.78
2017-10-10T07:03:07.813Z,6.05
2017-10-10T07:05:35.555Z,5.35
2017-10-10T07:08:03.929Z,6.05
2017-10-10T07:10:31.492Z,5.40
2017-10-10T07:12:59.098Z,6.05
2017-10-10T07:15:26.667Z,4.72
2017-10-10T07:17:54.314Z,4.70
2017-10-10T07:20:21.922Z,5.10
2017-10-10T07:22:49.519Z,5.25
2017-10-10T07:25:17.123Z,4.90
2017-10-10T07:27:45.501Z,4.35
2017-10-10T07:30:13.295Z,4.45
2017-10-10T07:32:41.031Z,4.32
2017-10-10T07:35:08.651Z,4.85
2017-10-10T07:37:37.599Z,3.97
2017-10-10T07:40:05.207Z,5.68
2017-10-10T07:42:32.817Z,5.75
2017-10-10T07:45:00.437Z,5.95
2017-10-10T07:47:28.059Z,5.28
2017-10-10T07:49:55.910Z,4.12
2017-10-10T07:52:23.534Z,4.60
2017-10-10T07:54:51.106Z,4.20
2017-10-10T07:57:18.706Z,3.85
2017-10-10T07:59:46.422Z,3.85
2017-10-10T08:02:14.068Z,3.65
2017-10-10T08:04:41.766Z,5.25
2017-10-10T08:07:09.492Z,5.28
2017-10-10T08:09:37.979Z,9.35
2017-10-10T08:12:06.402Z,4.57
2017-10-10T08:14:34.012Z,4.80
2017-10-10T08:17:01.583Z,8.25
2017-10-10T08:19:30.020Z,8.40
2017-10-10T08:21:57.642Z,7.70
2017-10-10T08:24:25.215Z,32.08
2017-10-10T08:26:52.842Z,6.72
2017-10-10T08:29:21.223Z,6.25
2017-10-10T08:31:49.617Z,28.67
2017-10-10T08:34:17.227Z,5.90
2017-10-10T08:36:44.851Z,7.82
2017-10-10T08:39:12.467Z,4.70
2017-10-10T08:41:40.210Z,4.15
2017-10-10T08:44:07.801Z,5.30
2017-10-10T08:46:35.414Z,3.60
2017-10-10T08:49:03.014Z,3.58
2017-10-10T08:51:30.625Z,3.78
2017-10-10T08:53:58.242Z,3.75
2017-10-10T08:56:26.030Z,3.75
2017-10-10T08:58:54.415Z,4.43
2017-10-10T09:01:22.028Z,3.62
2017-10-10T09:03:49.638Z,4.57
2017-10-10T09:06:17.253Z,4.20
2017-10-10T09:08:44.859Z,4.75
2017-10-10T09:11:12.473Z,4.43
2017-10-10T09:13:40.082Z,4.93
2017-10-10T09:16:07.727Z,4.47
2017-10-10T09:18:35.339Z,4.45
2017-10-10T09:21:02.943Z,5.12
2017-10-10T09:23:30.570Z,3.87
2017-10-10T09:25:58.184Z,3.12
2017-10-10T09:28:25.799Z,3.05
2017-10-10T09:30:53.408Z,4.10
2017-10-10T09:33:21.023Z,2.67
2017-10-10T09:35:48.631Z,2.65
2017-10-10T09:38:16.202Z,3.20
2017-10-10T09:40:43.807Z,2.80
2017-10-10T09:43:11.377Z,3.45
2017-10-10T09:45:39.023Z,4.47
2017-10-10T09:48:06.646Z,3.25
2017-10-10T09:50:34.226Z,3.62
2017-10-10T09:53:01.837Z,4.80
2017-10-10T09:55:30.214Z,5.15
2017-10-10T09:57:58.595Z,5.20
2017-10-10T10:00:26.974Z,6.00
2017-10-10T10:02:55.353Z,8.32
2017-10-10T10:05:23.739Z,7.05
2017-10-10T10:07:52.115Z,6.55
2017-10-10T10:10:20.499Z,10.20
2017-10-10T10:12:48.876Z,8.55
2017-10-10T10:15:17.258Z,8.25
2017-10-10T10:17:45.636Z,8.90
2017-10-10T10:20:14.020Z,8.93
2017-10-10T10:22:42.402Z,8.80
2017-10-10T10:25:10.072Z,9.23
2017-10-10T10:27:37.651Z,8.68
2017-10-10T10:30:05.258Z,9.60
2017-10-10T10:32:32.928Z,9.23
2017-10-10T10:35:00.538Z,9.50
2017-10-10T10:37:28.165Z,9.52
2017-10-10T10:39:55.783Z,9.32
2017-10-10T10:42:23.412Z,11.07
2017-10-10T10:44:51.032Z,11.43
2017-10-10T10:47:18.668Z,11.07
2017-10-10T10:49:46.251Z,11.90
2017-10-10T10:52:13.866Z,10.63
2017-10-10T10:54:41.482Z,13.48
2017-10-10T10:57:09.862Z,11.88
2017-10-10T10:59:38.240Z,15.15
2017-10-10T11:02:06.670Z,12.75
2017-10-10T11:04:34.281Z,12.43
2017-10-10T11:07:01.898Z,15.50
2017-10-10T11:09:29.515Z,15.80
2017-10-10T11:11:57.151Z,16.35
2017-10-10T11:14:24.771Z,15.43
2017-10-10T11:16:53.176Z,16.48
2017-10-10T11:19:20.813Z,16.87
2017-10-10T11:21:48.410Z,17.40
2017-10-10T11:24:15.944Z,17.48
2017-10-10T11:26:43.568Z,19.33
2017-10-10T11:29:11.146Z,18.87
2017-10-10T11:31:38.722Z,20.30
2017-10-10T11:34:06.350Z,21.00
2017-10-10T11:36:33.972Z,21.67
2017-10-10T11:39:01.549Z,19.35
2017-10-10T11:41:29.930Z,20.33
2017-10-10T11:43:58.311Z,18.75
2017-10-10T11:46:26.694Z,19.85
2017-10-10T11:48:54.311Z,17.60
2017-10-10T11:51:21.928Z,17.92
2017-10-10T11:53:49.598Z,18.35
2017-10-10T11:56:17.214Z,17.05
2017-10-10T11:58:44.833Z,17.42
2017-10-10T12:01:12.422Z,17.42
2017-10-10T12:03:40.042Z,15.45
2017-10-10T12:06:07.649Z,15.60
2017-10-10T12:08:35.271Z,14.10
2017-10-10T12:11:02.889Z,14.23
2017-10-10T12:13:30.463Z,13.95
2017-10-10T12:15:58.804Z,13.57
2017-10-10T12:18:26.424Z,15.07
2017-10-10T12:20:54.020Z,16.67
2017-10-10T12:23:21.639Z,15.70
2017-10-10T12:25:49.251Z,15.90
2017-10-10T12:28:16.918Z,16.25
2017-10-10T12:30:44.498Z,14.75
2017-10-10T12:33:12.124Z,15.05
2017-10-10T12:35:39.737Z,13.70
2017-10-10T12:38:07.358Z,14.55
2017-10-10T12:40:34.970Z,14.95
2017-10-10T12:43:02.594Z,15.35
2017-10-10T12:45:30.220Z,15.07
2017-10-10T12:47:57.793Z,14.35
2017-10-10T12:50:25.414Z,15.77
2017-10-10T12:52:53.030Z,14.90
2017-10-10T12:55:20.742Z,16.98
2017-10-10T12:57:48.365Z,21.80
2017-10-10T13:00:15.983Z,15.63
2017-10-10T13:02:43.574Z,25.17
2017-10-10T13:05:11.152Z,33.42
2017-10-10T13:07:38.775Z,27.10
2017-10-10T13:10:06.350Z,33.50
2017-10-10T13:12:33.988Z,46.15
2017-10-10T13:15:01.603Z,35.00
2017-10-10T13:17:29.986Z,24.65
2017-10-10T13:19:58.436Z,18.50
2017-10-10T13:22:27.144Z,14.90
2017-10-10T13:24:54.768Z,14.40
2017-10-10T13:27:22.347Z,15.05
2017-10-10T13:29:50.044Z,14.70
2017-10-10T13:32:18.448Z,14.60
2017-10-10T13:34:46.197Z,16.60
2017-10-10T13:37:13.908Z,17.05
2017-10-10T13:39:41.543Z,17.40
2017-10-10T13:42:09.193Z,16.27
2017-10-10T13:44:36.765Z,15.95
2017-10-10T13:47:04.395Z,18.73
2017-10-10T13:49:32.786Z,16.40
2017-10-10T13:52:01.362Z,15.10
2017-10-10T13:54:29.799Z,15.55
2017-10-10T13:56:57.683Z,17.23
2017-10-10T13:59:25.318Z,15.13
2017-10-10T14:01:52.954Z,17.20
2017-10-10T14:04:21.509Z,17.02
2017-10-10T14:06:49.915Z,16.17
2017-10-10T14:09:17.489Z,18.05
2017-10-10T14:11:45.102Z,21.90
2017-10-10T14:14:12.676Z,22.60
2017-10-10T14:16:40.313Z,19.48
2017-10-10T14:19:07.958Z,19.20
2017-10-10T14:21:35.553Z,20.35
2017-10-10T14:24:03.938Z,19.65
2017-10-10T14:26:32.335Z,18.80
2017-10-10T14:28:59.991Z,23.25
2017-10-10T14:31:27.569Z,23.10
2017-10-10T14:33:55.158Z,29.70
2017-10-10T14:36:22.781Z,24.52
2017-10-10T14:38:50.459Z,27.65
2017-10-10T14:41:18.288Z,20.85
2017-10-10T14:43:46.075Z,21.70
2017-10-10T14:46:13.664Z,22.83
2017-10-10T14:48:41.241Z,19.33
2017-10-10T14:51:08.858Z,17.85
2017-10-10T14:53:36.525Z,17.33
2017-10-10T14:56:04.204Z,16.42
2017-10-10T14:58:31.813Z,14.68
2017-10-10T15:00:59.436Z,14.68
2017-10-10T15:03:27.058Z,14.63
2017-10-10T15:05:54.691Z,15.20
2017-10-10T15:08:22.326Z,16.15
2017-10-10T15:10:51.156Z,15.32
2017-10-10T15:13:19.550Z,16.35
2017-10-10T15:15:47.156Z,16.33
2017-10-10T15:18:14.736Z,16.23
2017-10-10T15:20:42.309Z,17.52
2017-10-10T15:23:09.943Z,18.25
2017-10-10T15:25:37.557Z,18.73
2017-10-10T15:28:05.186Z,18.05
2017-10-10T15:30:32.806Z,18.70
2017-10-10T15:33:00.393Z,17.77
2017-10-10T15:35:28.054Z,18.25
2017-10-10T15:37:55.752Z,19.17
2017-10-10T15:40:23.405Z,18.95
2017-10-10T15:42:51.795Z,20.27
2017-10-10T15:45:20.171Z,19.92
2017-10-10T15:47:48.537Z,23.48
2017-10-10T15:50:16.303Z,23.50
2017-10-10T15:52:44.727Z,20.48
2017-10-10T15:55:12.378Z,23.25
2017-10-10T15:57:40.066Z,22.73
2017-10-10T16:00:07.695Z,23.45
2017-10-10T16:02:35.431Z,24.50
2017-10-10T16:05:03.047Z,24.83
2017-10-10T16:07:30.640Z,21.45
2017-10-10T16:09:58.268Z,19.85
2017-10-10T16:12:25.886Z,21.35
2017-10-10T16:14:54.264Z,20.65
2017-10-10T16:17:22.651Z,18.30
2017-10-10T16:19:50.266Z,19.62
2017-10-10T16:22:20.923Z,20.40
2017-10-10T16:24:48.508Z,20.80
2017-10-10T16:27:16.133Z,18.95
2017-10-10T16:29:43.754Z,19.65
2017-10-10T16:32:11.594Z,20.15
2017-10-10T16:34:40.090Z,21.23
2017-10-10T16:37:07.696Z,19.20
2017-10-10T16:39:35.323Z,20.62
2017-10-10T16:42:02.942Z,18.40
2017-10-10T16:44:30.572Z,19.73
2017-10-10T16:46:58.186Z,19.87
2017-10-10T16:49:25.766Z,18.00
2017-10-10T16:51:53.345Z,16.65
2017-10-10T16:54:20.966Z,18.95
2017-10-10T16:56:49.354Z,16.48
2017-10-10T16:59:16.934Z,18.80
2017-10-10T17:01:44.567Z,16.40
2017-10-10T17:04:14.658Z,15.10
2017-10-10T17:06:42.287Z,14.25
2017-10-10T17:09:09.903Z,14.20
2017-10-10T17:11:37.491Z,13.90
2017-10-10T17:14:05.222Z,14.57
2017-10-10T17:16:33.611Z,14.68
2017-10-10T17:19:01.900Z,14.23
2017-10-10T17:21:29.598Z,16.02
2017-10-10T17:23:58.386Z,15.38
2017-10-10T17:26:26.002Z,16.65
2017-10-10T17:28:53.687Z,15.30
2017-10-10T17:31:21.310Z,15.18
2017-10-10T17:33:48.897Z,14.98
2017-10-10T17:36:16.528Z,15.80
2017-10-10T17:38:44.154Z,14.15
2017-10-10T17:41:11.771Z,18.60
2017-10-10T17:43:39.386Z,16.80
2017-10-10T17:46:07.005Z,15.75
2017-10-10T17:48:34.840Z,14.87
2017-10-10T17:51:03.153Z,16.23
2017-10-10T17:53:30.948Z,15.23
2017-10-10T17:55:58.575Z,15.45
2017-10-10T17:58:26.211Z,14.20
2017-10-10T18:00:54.605Z,15.02
2017-10-10T18:03:22.230Z,16.73
2017-10-10T18:05:49.842Z,16.37
2017-10-10T18:08:17.461Z,16.50
2017-10-10T18:10:45.074Z,17.12
2017-10-10T18:13:12.738Z,16.65
2017-10-10T18:15:41.152Z,16.90
2017-10-10T18:18:08.866Z,17.15
2017-10-10T18:20:36.482Z,18.23
2017-10-10T18:23:04.366Z,18.50
2017-10-10T18:25:31.981Z,19.62
2017-10-10T18:28:06.111Z,18.95
2017-10-10T18:30:33.737Z,18.37
2017-10-10T18:33:01.370Z,17.50
2017-10-10T18:35:29.130Z,18.83
2017-10-10T18:37:56.745Z,18.42
2017-10-10T18:40:24.354Z,17.48
2017-10-10T18:42:51.965Z,17.00
2017-10-10T18:45:19.578Z,18.48
2017-10-10T18:47:48.011Z,15.80
2017-10-10T18:50:16.249Z,14.43
2017-10-10T18:52:44.120Z,15.60
2017-10-10T18:55:11.820Z,15.07
2017-10-10T18:57:39.408Z,14.85
2017-10-10T19:00:07.018Z,15.68
2017-10-10T19:02:34.626Z,15.13
2017-10-10T19:05:02.210Z,15.18
2017-10-10T19:07:30.503Z,14.02
2017-10-10T19:09:58.143Z,14.95
2017-10-10T19:12:26.538Z,15.00
2017-10-10T19:14:55.066Z,14.05
2017-10-10T19:17:22.737Z,12.88
2017-10-10T19:19:50.810Z,12.70
2017-10-10T19:22:18.421Z,13.77
2017-10-10T19:24:46.003Z,14.43
2017-10-10T19:27:13.683Z,13.85
2017-10-10T19:29:42.958Z,13.23
2017-10-10T19:32:10.602Z,12.43
2017-10-10T19:34:38.177Z,13.38
2017-10-10T19:37:05.808Z,12.73
2017-10-10T19:39:34.208Z,11.82
2017-10-10T19:42:01.839Z,13.40
2017-10-10T19:44:29.463Z,13.10
2017-10-10T19:46:57.073Z,12.95
2017-10-10T19:49:25.450Z,12.30
2017-10-10T19:51:54.589Z,12.90
2017-10-10T19:54:22.204Z,12.57
2017-10-10T19:56:50.595Z,11.02
2017-10-10T19:59:18.974Z,12.77
2017-10-10T20:01:46.607Z,12.05
2017-10-10T20:04:14.232Z,12.13
2017-10-10T20:06:41.862Z,11.40
2017-10-10T20:09:09.483Z,11.12
2017-10-10T20:11:37.113Z,11.35
2017-10-10T20:14:04.733Z,11.63
2017-10-10T20:16:32.366Z,11.10
2017-10-10T20:19:00.803Z,11.57
2017-10-10T20:21:28.382Z,11.27
2017-10-10T20:23:56.001Z,12.32
2017-10-10T20:26:24.402Z,11.57
2017-10-10T20:28:52.019Z,12.43
2017-10-10T20:31:19.650Z,11.52
2017-10-10T20:33:47.282Z,11.20
2017-10-10T20:36:14.910Z,10.70
2017-10-10T20:38:42.649Z,11.35
2017-10-10T20:41:10.274Z,11.27
2017-10-10T20:43:37.890Z,11.88
2017-10-10T20:46:05.520Z,11.45
2017-10-10T20:48:33.134Z,11.70
2017-10-10T20:51:00.747Z,10.68
2017-10-10T20:53:28.371Z,10.60
2017-10-10T20:55:55.986Z,11.77
2017-10-10T20:58:23.561Z,12.37
2017-10-10T21:00:51.173Z,12.07
2017-10-10T21:03:18.787Z,11.88
2017-10-10T21:05:46.427Z,12.05
2017-10-10T21:08:14.054Z,12.20
2017-10-10T21:10:41.686Z,14.82
2017-10-10T21:13:10.068Z,13.52
2017-10-10T21:15:37.682Z,14.10
2017-10-10T21:18:05.254Z,13.65
2017-10-10T21:20:32.906Z,12.93
2017-10-10T21:23:00.492Z,13.18
2017-10-10T21:25:28.105Z,12.98
2017-10-10T21:27:55.719Z,14.52
2017-10-10T21:30:23.296Z,14.45
2017-10-10T21:32:51.633Z,15.98
2017-10-10T21:35:19.214Z,14.73
2017-10-10T21:37:46.837Z,15.32
2017-10-10T21:40:14.447Z,15.35
2017-10-10T21:42:42.102Z,16.48
2017-10-10T21:45:09.723Z,14.55
2017-10-10T21:47:37.342Z,15.18
2017-10-10T21:50:04.957Z,14.48
2017-10-10T21:52:32.649Z,15.23
2017-10-10T21:55:00.262Z,14.55
2017-10-10T21:57:27.841Z,14.55
2017-10-10T21:59:55.450Z,15.68
2017-10-10T22:02:23.836Z,15.68
2017-10-10T22:04:51.418Z,16.10
2017-10-10T22:07:19.025Z,16.65
2017-10-10T22:09:47.720Z,16.77
2017-10-10T22:12:15.298Z,16.83
2017-10-10T22:14:42.924Z,17.73
2017-10-10T22:17:10.539Z,17.62
2017-10-10T22:19:38.298Z,17.42
2017-10-10T22:22:05.866Z,16.95
2017-10-10T22:24:33.447Z,18.75
2017-10-10T22:27:01.070Z,17.17
2017-10-10T22:29:28.648Z,17.77
2017-10-10T22:31:56.263Z,18.52
2017-10-10T22:34:23.879Z,19.10
2017-10-10T22:36:51.490Z,17.20
2017-10-10T22:39:19.113Z,17.05
2017-10-10T22:41:46.735Z,17.58
2017-10-10T22:44:14.332Z,19.27
2017-10-10T22:46:41.943Z,17.83
2017-10-10T22:49:10.300Z,19.37
2017-10-10T22:51:37.911Z,16.75
2017-10-10T22:54:05.502Z,18.80
2017-10-10T22:56:33.126Z,18.02
2017-10-10T22:59:00.737Z,17.40
2017-10-10T23:01:28.343Z,17.60
2017-10-10T23:03:55.962Z,17.05
2017-10-10T23:06:23.574Z,18.08
2017-10-10T23:08:51.186Z,15.60
2017-10-10T23:11:18.842Z,16.75
2017-10-10T23:13:46.467Z,15.95
2017-10-10T23:16:14.154Z,15.98
2017-10-10T23:18:41.777Z,15.02
2017-10-10T23:21:09.397Z,15.18
2017-10-10T23:23:37.013Z,13.80
2017-10-10T23:26:04.669Z,13.30
2017-10-10T23:28:32.287Z,13.40
2017-10-10T23:30:59.895Z,13.35
2017-10-10T23:33:27.513Z,14.18
2017-10-10T23:35:55.085Z,16.30
2017-10-10T23:38:22.695Z,14.50
2017-10-10T23:40:50.264Z,13.82
2017-10-10T23:43:17.875Z,15.52
2017-10-10T23:45:46.257Z,14.70
2017-10-10T23:48:13.876Z,15.00
2017-10-10T23:50:41.487Z,14.27
2017-10-10T23:53:09.113Z,15.00
2017-10-10T23:55:36.726Z,13.30
2017-10-10T23:58:04.302Z,13.60
